Time;durP1;ratioP1;P1;durP2;ratioP2;P2;SDS_P1;SDS_P2;PMS_P1;PMS_P2;Temp;Humidity;BMP_temperature;BMP_pressure;BME280_temperature;BME280_humidity;BME280_pressure;Samples;Min_cycle;Max_cycle;Signal;HPM_P1;HPM_P2
2023/02/03 00:01:33;;;;;;;2.05;0.80;;;4.40;99.90;;;;;;8231923;28;20114;-77
2023/02/03 00:05:35;;;;;;;2.67;0.98;;;4.50;99.90;;;;;;8235665;28;20049;-78
2023/02/03 00:09:35;;;;;;;1.30;0.70;;;4.40;99.90;;;;;;8238574;28;20027;-78
2023/02/03 00:13:36;;;;;;;1.55;0.73;;;4.30;99.90;;;;;;8233851;28;20025;-79
2023/02/03 00:17:36;;;;;;;2.55;1.00;;;4.30;99.90;;;;;;8232707;28;20109;-77
2023/02/03 00:21:37;;;;;;;1.67;0.80;;;4.30;99.90;;;;;;8235126;28;20042;-78
2023/02/03 00:25:38;;;;;;;3.45;1.10;;;4.40;99.90;;;;;;8230438;28;20503;-78
2023/02/03 00:29:39;;;;;;;1.67;1.00;;;4.50;99.90;;;;;;8231186;28;20067;-78
2023/02/03 00:33:39;;;;;;;2.88;0.80;;;4.50;99.90;;;;;;8233344;28;20109;-78
2023/02/03 00:37:40;;;;;;;3.85;0.98;;;4.40;99.90;;;;;;8233066;28;20144;-77
2023/02/03 00:41:41;;;;;;;1.75;0.68;;;4.20;99.90;;;;;;8233294;28;20031;-77
2023/02/03 00:45:41;;;;;;;1.23;0.75;;;4.20;99.90;;;;;;8236822;28;20406;-78
2023/02/03 00:49:42;;;;;;;5.47;1.00;;;4.20;99.90;;;;;;8233160;28;20031;-78
2023/02/03 00:53:42;;;;;;;1.50;0.70;;;4.10;99.90;;;;;;8234009;28;20033;-78
2023/02/03 00:57:43;;;;;;;1.52;0.70;;;4.10;99.90;;;;;;8232799;28;20443;-77
2023/02/03 01:01:44;;;;;;;1.23;0.70;;;4.10;99.90;;;;;;8232501;28;20027;-78
2023/02/03 01:05:44;;;;;;;3.45;0.80;;;4.10;99.90;;;;;;8232641;28;20018;-78
2023/02/03 01:09:45;;;;;;;2.13;0.63;;;4.10;99.90;;;;;;8232668;28;20026;-78
2023/02/03 01:13:45;;;;;;;1.35;0.90;;;4.10;99.90;;;;;;8232711;28;20097;-78
2023/02/03 01:17:46;;;;;;;1.20;0.80;;;4.10;99.90;;;;;;8232906;28;20023;-78
2023/02/03 01:21:46;;;;;;;2.17;1.00;;;4.00;99.90;;;;;;8232424;28;20019;-78
2023/02/03 01:25:47;;;;;;;2.40;0.85;;;4.00;99.90;;;;;;8234254;28;20038;-78
2023/02/03 01:29:48;;;;;;;3.30;0.90;;;4.00;99.90;;;;;;8234461;28;20015;-77
2023/02/03 01:33:51;;;;;;;3.50;1.20;;;4.10;99.90;;;;;;8233847;28;20451;-78
2023/02/03 01:37:51;;;;;;;2.03;0.85;;;4.20;99.90;;;;;;8236149;28;20106;-77
2023/02/03 01:41:54;;;;;;;2.20;0.85;;;4.20;99.90;;;;;;8233175;28;20058;-77
2023/02/03 01:45:55;;;;;;;5.78;1.20;;;4.10;99.90;;;;;;8227887;28;20039;-77
2023/02/03 01:50:10;;;;;;;1.58;0.77;;;4.30;99.90;;;;;;8223014;28;20126;-77
2023/02/03 01:54:30;;;;;;;1.52;0.90;;;4.40;99.90;;;;;;8228848;28;20038;-77
2023/02/03 01:58:36;;;;;;;5.10;1.00;;;4.40;99.90;;;;;;8229133;28;20424;-77
2023/02/03 02:02:36;;;;;;;2.05;0.80;;;4.40;99.90;;;;;;8221981;28;20078;-78
2023/02/03 02:06:37;;;;;;;2.40;0.98;;;4.40;99.90;;;;;;8231042;28;20033;-77
2023/02/03 02:10:38;;;;;;;2.45;1.20;;;4.20;99.90;;;;;;8229756;28;20411;-78
2023/02/03 02:14:41;;;;;;;1.38;0.75;;;4.30;99.90;;;;;;8229324;28;20034;-77
2023/02/03 02:19:12;;;;;;;2.28;1.00;;;4.30;99.90;;;;;;8229957;28;20023;-77
2023/02/03 02:23:18;;;;;;;1.15;0.80;;;4.30;99.90;;;;;;8246345;28;20830;-77
2023/02/03 02:27:43;;;;;;;1.05;0.73;;;4.30;99.90;;;;;;8224503;28;20026;-78
2023/02/03 02:32:12;;;;;;;2.28;0.93;;;4.30;99.90;;;;;;8224267;28;20031;-78
2023/02/03 02:36:42;;;;;;;1.45;1.08;;;4.30;99.90;;;;;;8229297;28;20565;-78
2023/02/03 02:41:00;;;;;;;0.40;0.30;;;4.30;99.90;;;;;;8222294;28;20117;-78
2023/02/03 02:45:13;;;;;;;3.35;1.10;;;4.40;99.90;;;;;;8230226;28;20552;-78
2023/02/03 02:49:19;;;;;;;1.60;0.90;;;4.40;99.90;;;;;;8230682;28;20027;-78
2023/02/03 02:53:23;;;;;;;4.03;1.23;;;4.40;99.90;;;;;;8245228;28;20073;-79
2023/02/03 02:57:25;;;;;;;1.10;0.90;;;4.30;99.90;;;;;;8234247;28;20023;-78
2023/02/03 03:01:26;;;;;;;2.03;1.02;;;4.30;99.90;;;;;;8235182;28;20034;-78
2023/02/03 03:05:27;;;;;;;8.32;0.90;;;4.30;99.90;;;;;;8234306;28;20022;-78
2023/02/03 03:09:37;;;;;;;0.65;0.45;;;4.20;99.90;;;;;;8234103;28;20462;-78
2023/02/03 03:13:44;;;;;;;3.90;1.03;;;4.20;99.90;;;;;;8232403;28;20023;-76
2023/02/03 03:17:52;;;;;;;3.42;1.02;;;4.20;99.90;;;;;;8235106;28;20269;-78
2023/02/03 03:21:58;;;;;;;3.35;1.15;;;4.10;99.90;;;;;;8231160;28;20034;-78
2023/02/03 03:26:06;;;;;;;2.30;1.33;;;4.10;99.90;;;;;;8233833;28;20069;-79
2023/02/03 03:30:09;;;;;;;2.67;1.10;;;4.10;99.90;;;;;;8232944;28;20094;-80
2023/02/03 03:34:12;;;;;;;2.55;1.10;;;4.10;99.90;;;;;;8228224;28;20411;-77
2023/02/03 03:38:22;;;;;;;1.50;0.82;;;4.10;99.90;;;;;;8233763;28;20030;-78
2023/02/03 03:42:33;;;;;;;5.85;1.60;;;4.00;99.90;;;;;;8231967;28;20027;-78
2023/02/03 03:46:42;;;;;;;3.20;1.40;;;3.90;99.90;;;;;;8233565;28;20105;-77
2023/02/03 03:50:50;;;;;;;3.83;1.55;;;4.00;99.90;;;;;;8230188;28;20066;-78
2023/02/03 03:54:52;;;;;;;3.83;1.02;;;4.10;99.90;;;;;;8232891;28;20026;-78
2023/02/03 03:58:53;;;;;;;5.05;1.38;;;4.10;99.90;;;;;;8232594;28;20030;-79
2023/02/03 04:02:57;;;;;;;0.68;0.57;;;4.20;99.90;;;;;;8236673;28;20030;-78
2023/02/03 04:06:57;;;;;;;1.52;0.80;;;4.20;99.90;;;;;;8225849;28;20039;-77
2023/02/03 04:10:58;;;;;;;5.10;1.02;;;4.20;99.90;;;;;;8233310;28;20049;-78
2023/02/03 04:14:58;;;;;;;2.80;0.82;;;4.20;99.90;;;;;;8233289;28;20031;-77
2023/02/03 04:18:59;;;;;;;3.08;0.95;;;4.20;99.90;;;;;;8232176;28;20042;-77
2023/02/03 04:22:59;;;;;;;3.58;1.10;;;4.30;99.90;;;;;;8226619;28;20058;-80
2023/02/03 04:27:00;;;;;;;2.75;0.93;;;4.30;99.90;;;;;;8226023;28;20031;-78
2023/02/03 04:31:00;;;;;;;4.82;1.08;;;4.30;99.90;;;;;;8222348;28;20031;-77
2023/02/03 04:35:04;;;;;;;0.63;0.45;;;4.30;99.90;;;;;;8223655;28;20027;-78
2023/02/03 04:39:04;;;;;;;5.07;1.02;;;4.30;99.90;;;;;;8217560;28;20082;-79
2023/02/03 04:43:06;;;;;;;2.30;1.25;;;4.20;99.90;;;;;;8226037;28;20035;-77
2023/02/03 04:47:07;;;;;;;3.17;0.80;;;4.10;99.90;;;;;;8222376;28;20371;-76
2023/02/03 04:51:08;;;;;;;1.50;0.70;;;4.10;99.90;;;;;;8224528;28;20023;-77
2023/02/03 04:55:08;;;;;;;3.15;1.00;;;4.00;99.90;;;;;;8226514;28;20050;-78
2023/02/03 04:59:09;;;;;;;2.08;0.82;;;4.00;99.90;;;;;;8234370;28;20057;-77
2023/02/03 05:03:10;;;;;;;3.22;0.95;;;4.10;99.90;;;;;;8231355;28;20059;-79
2023/02/03 05:07:10;;;;;;;1.33;0.88;;;4.10;99.90;;;;;;8228757;28;20039;-77
2023/02/03 05:11:11;;;;;;;2.80;0.85;;;4.00;99.90;;;;;;8233485;28;20423;-79
2023/02/03 05:15:11;;;;;;;2.80;1.02;;;4.10;99.90;;;;;;8230423;28;20037;-79
2023/02/03 05:19:12;;;;;;;1.67;0.95;;;4.10;99.90;;;;;;8228659;28;20467;-77
2023/02/03 05:23:12;;;;;;;1.50;0.88;;;4.00;99.90;;;;;;8218813;28;20030;-78
2023/02/03 05:27:13;;;;;;;1.80;0.80;;;4.00;99.90;;;;;;8230933;28;20038;-78
2023/02/03 05:31:14;;;;;;;4.55;1.02;;;4.00;99.90;;;;;;8227916;28;20130;-76
2023/02/03 05:35:14;;;;;;;6.70;0.90;;;4.00;99.90;;;;;;8227606;28;20043;-76
2023/02/03 05:39:20;;;;;;;2.00;1.00;;;4.10;99.90;;;;;;8228550;28;20035;-78
2023/02/03 05:43:20;;;;;;;1.08;0.80;;;4.00;99.90;;;;;;8218194;28;20161;-77
2023/02/03 05:47:21;;;;;;;4.28;0.90;;;4.00;99.90;;;;;;8232185;28;20027;-78
2023/02/03 05:51:21;;;;;;;1.23;0.70;;;3.90;99.90;;;;;;8226195;28;20045;-78
2023/02/03 05:55:22;;;;;;;1.63;0.43;;;3.90;99.90;;;;;;8223174;28;20110;-76
2023/02/03 05:59:22;;;;;;;0.40;0.40;;;3.90;99.90;;;;;;8224282;28;20078;-78
2023/02/03 06:03:23;;;;;;;0.98;0.73;;;3.90;99.90;;;;;;8230117;28;20530;-77
2023/02/03 06:07:24;;;;;;;1.45;0.50;;;3.90;99.90;;;;;;8225613;28;20051;-77
2023/02/03 06:11:24;;;;;;;2.85;1.27;;;3.90;99.90;;;;;;8223482;28;20382;-77
2023/02/03 06:15:25;;;;;;;1.30;0.63;;;3.90;99.90;;;;;;8224934;28;20121;-76
2023/02/03 06:19:25;;;;;;;4.20;0.88;;;4.00;99.90;;;;;;8225786;28;20023;-76
2023/02/03 06:23:26;;;;;;;1.70;1.05;;;3.90;99.90;;;;;;8225717;28;20026;-77
2023/02/03 06:27:26;;;;;;;1.88;0.80;;;4.00;99.90;;;;;;8227032;28;20501;-77
2023/02/03 06:31:27;;;;;;;1.65;0.70;;;4.00;99.90;;;;;;8231390;28;20714;-76
2023/02/03 06:35:28;;;;;;;1.15;0.60;;;4.00;99.90;;;;;;8230663;28;20022;-77
2023/02/03 06:39:28;;;;;;;4.80;1.10;;;4.00;99.90;;;;;;8232309;28;20025;-77
2023/02/03 06:43:29;;;;;;;1.13;0.80;;;4.00;99.90;;;;;;8229654;28;20062;-76
2023/02/03 06:47:29;;;;;;;1.42;0.73;;;4.00;99.90;;;;;;8232295;28;20042;-76
2023/02/03 06:51:30;;;;;;;2.20;0.90;;;4.00;99.90;;;;;;8231529;28;20089;-76
2023/02/03 06:55:30;;;;;;;2.60;0.50;;;4.00;99.90;;;;;;8232566;28;20023;-78
2023/02/03 06:59:31;;;;;;;3.88;1.00;;;4.10;99.90;;;;;;8227333;28;20062;-78
2023/02/03 07:03:31;;;;;;;4.07;0.68;;;4.10;99.90;;;;;;8231634;28;20034;-78
2023/02/03 07:07:32;;;;;;;1.95;0.20;;;4.10;99.90;;;;;;8231200;28;20027;-77
2023/02/03 07:11:33;;;;;;;0.65;0.30;;;4.20;99.90;;;;;;8223418;28;20026;-77
2023/02/03 07:15:34;;;;;;;3.00;0.55;;;4.20;99.90;;;;;;8230408;28;20027;-77
2023/02/03 07:19:34;;;;;;;2.50;0.80;;;4.30;99.90;;;;;;8225533;28;20081;-77
2023/02/03 07:23:35;;;;;;;0.75;0.50;;;4.30;99.90;;;;;;8221414;28;20478;-77
2023/02/03 07:27:36;;;;;;;1.90;0.60;;;4.40;99.90;;;;;;8223590;28;20137;-78
2023/02/03 07:31:37;;;;;;;1.15;0.60;;;4.40;99.90;;;;;;8227129;28;20492;-78
2023/02/03 07:35:37;;;;;;;2.70;0.80;;;4.40;99.90;;;;;;8226746;28;20034;-77
2023/02/03 07:39:38;;;;;;;0.80;0.43;;;4.50;99.90;;;;;;8230707;28;20530;-78
2023/02/03 07:43:38;;;;;;;2.15;0.60;;;4.40;99.90;;;;;;8226788;28;20042;-78
2023/02/03 07:47:39;;;;;;;1.65;0.10;;;4.50;99.90;;;;;;8223396;28;20037;-78
2023/02/03 07:51:40;;;;;;;1.58;0.70;;;4.60;99.90;;;;;;8226408;28;20033;-78
2023/02/03 07:55:40;;;;;;;0.20;0.20;;;4.70;99.90;;;;;;8228767;28;20113;-79
2023/02/03 07:59:41;;;;;;;0.85;0.45;;;4.70;99.90;;;;;;8228575;28;20023;-78
2023/02/03 08:03:42;;;;;;;0.60;0.43;;;4.80;99.90;;;;;;8226853;28;20025;-78
2023/02/03 08:07:42;;;;;;;1.60;0.70;;;4.90;99.90;;;;;;8228850;28;20053;-78
2023/02/03 08:11:43;;;;;;;1.95;0.70;;;4.90;99.90;;;;;;8230434;28;20027;-78
2023/02/03 08:15:43;;;;;;;0.93;0.90;;;5.00;99.90;;;;;;8225806;28;20023;-78
2023/02/03 08:19:44;;;;;;;1.42;0.77;;;4.90;99.90;;;;;;8232939;28;20046;-79
2023/02/03 08:23:44;;;;;;;2.97;0.77;;;4.90;99.90;;;;;;8225369;28;20023;-79
2023/02/03 08:27:45;;;;;;;1.77;0.95;;;5.10;99.90;;;;;;8230671;28;20484;-78
2023/02/03 08:31:45;;;;;;;0.60;0.60;;;5.10;99.90;;;;;;8218968;28;20026;-79
2023/02/03 08:35:48;;;;;;;1.08;0.68;;;5.10;99.90;;;;;;8214921;28;20685;-77
2023/02/03 08:39:48;;;;;;;0.70;0.60;;;5.10;99.90;;;;;;8224187;28;20126;-78
2023/02/03 08:43:49;;;;;;;2.15;0.80;;;5.00;99.90;;;;;;8229509;28;20034;-78
2023/02/03 08:47:50;;;;;;;0.77;0.68;;;5.00;99.90;;;;;;8227983;28;20033;-78
2023/02/03 08:51:51;;;;;;;2.70;1.00;;;5.20;99.90;;;;;;8226609;28;20555;-78
2023/02/03 08:55:53;;;;;;;2.53;0.60;;;5.30;99.90;;;;;;8226831;28;20050;-78
2023/02/03 08:59:53;;;;;;;1.83;1.00;;;5.40;99.90;;;;;;8226007;28;20035;-78
2023/02/03 09:03:54;;;;;;;0.65;0.45;;;5.40;99.90;;;;;;8223558;28;20484;-78
2023/02/03 09:07:55;;;;;;;1.40;0.73;;;5.40;99.90;;;;;;8226444;28;20027;-78
2023/02/03 09:12:00;;;;;;;4.50;0.80;;;5.40;99.90;;;;;;8226709;28;20495;-77
2023/02/03 09:16:01;;;;;;;2.03;0.90;;;5.40;99.90;;;;;;8219980;28;20034;-77
2023/02/03 09:20:02;;;;;;;2.75;1.45;;;5.40;99.90;;;;;;8224099;28;20033;-78
2023/02/03 09:24:03;;;;;;;3.97;2.30;;;5.30;99.90;;;;;;8226009;28;20061;-78
2023/02/03 09:28:04;;;;;;;30.75;10.35;;;5.30;99.90;;;;;;8227652;28;20113;-78
2023/02/03 09:32:07;;;;;;;12.65;5.18;;;5.50;99.90;;;;;;8224698;28;20034;-77
2023/02/03 09:36:09;;;;;;;2.83;1.40;;;5.50;99.90;;;;;;8219209;28;20026;-77
2023/02/03 09:40:20;;;;;;;2.20;0.90;;;5.60;99.90;;;;;;8216560;28;20121;-78
2023/02/03 09:44:45;;;;;;;2.97;1.05;;;5.50;99.90;;;;;;8225930;28;20031;-77
2023/02/03 09:48:54;;;;;;;1.55;1.02;;;5.80;99.90;;;;;;8215911;28;20514;-77
2023/02/03 09:52:57;;;;;;;1.38;0.80;;;5.90;99.90;;;;;;8222670;28;20034;-77
2023/02/03 09:56:59;;;;;;;1.38;0.80;;;6.20;99.90;;;;;;8212804;28;20380;-77
2023/02/03 10:01:08;;;;;;;1.10;0.60;;;6.40;99.90;;;;;;8216378;28;20035;-77
2023/02/03 10:05:14;;;;;;;2.45;0.73;;;6.70;99.90;;;;;;8223334;28;20042;-77
2023/02/03 10:09:23;;;;;;;1.17;0.77;;;6.80;99.90;;;;;;8221752;28;20055;-78
2023/02/03 10:13:35;;;;;;;1.83;1.02;;;6.90;99.90;;;;;;8230820;28;20023;-77
2023/02/03 10:17:39;;;;;;;1.55;0.68;;;7.10;99.90;;;;;;8211690;28;20113;-78
2023/02/03 10:21:44;;;;;;;1.05;0.60;;;6.90;99.90;;;;;;8226168;28;20435;-78
2023/02/03 10:25:55;;;;;;;1.73;0.50;;;6.90;99.90;;;;;;8227635;28;20304;-78
2023/02/03 10:30:13;;;;;;;2.42;0.68;;;6.90;99.90;;;;;;8233658;28;20043;-78
2023/02/03 10:34:16;;;;;;;1.92;0.63;;;7.10;99.90;;;;;;8240838;28;20381;-78
2023/02/03 10:38:37;;;;;;;1.13;0.73;;;7.10;99.90;;;;;;8232664;28;20061;-78
2023/02/03 10:46:59;;;;;;;2.33;1.80;;;7.30;99.90;;;;;;8216814;28;20047;-78
2023/02/03 10:51:01;;;;;;;2.53;0.63;;;7.30;99.90;;;;;;8233330;28;20517;-78
2023/02/03 10:55:07;;;;;;;3.20;1.20;;;7.70;99.90;;;;;;8233445;28;20047;-79
2023/02/03 10:59:28;;;;;;;3.50;1.10;;;7.70;99.90;;;;;;8234582;28;20023;-77
2023/02/03 11:03:29;;;;;;;2.03;1.00;;;7.90;99.90;;;;;;8232256;28;20101;-78
2023/02/03 11:07:29;;;;;;;1.73;0.70;;;8.20;99.90;;;;;;8230269;28;20027;-78
2023/02/03 11:11:32;;;;;;;1.67;0.75;;;8.20;99.90;;;;;;8223474;28;20027;-78
2023/02/03 11:15:33;;;;;;;0.80;0.70;;;8.10;99.90;;;;;;8225823;28;20403;-78
2023/02/03 11:19:37;;;;;;;0.80;0.50;;;8.10;99.90;;;;;;8227992;28;20022;-77
2023/02/03 11:23:56;;;;;;;1.35;0.60;;;7.80;99.90;;;;;;8219169;28;20093;-78
2023/02/03 11:28:05;;;;;;;0.95;0.60;;;7.70;99.90;;;;;;8243341;28;20031;-77
2023/02/03 11:32:30;;;;;;;2.50;0.50;;;7.30;99.90;;;;;;8219956;28;20038;-77
2023/02/03 11:36:33;;;;;;;1.85;0.60;;;7.30;99.90;;;;;;8222535;28;20027;-78
2023/02/03 11:40:37;;;;;;;0.82;0.60;;;7.30;99.90;;;;;;8226851;28;20034;-78
2023/02/03 11:44:37;;;;;;;0.45;0.32;;;7.40;99.90;;;;;;8223341;28;20499;-78
2023/02/03 11:49:01;;;;;;;2.15;0.60;;;7.50;99.90;;;;;;8219781;28;20162;-78
2023/02/03 11:53:18;;;;;;;0.98;0.52;;;7.70;99.90;;;;;;8231507;28;20046;-79
2023/02/03 11:57:29;;;;;;;1.20;0.70;;;8.40;99.90;;;;;;8221492;28;20023;-78
2023/02/03 12:02:04;;;;;;;0.43;0.43;;;8.30;99.90;;;;;;8225329;28;20054;-78
2023/02/03 12:06:28;;;;;;;0.85;0.52;;;7.90;99.90;;;;;;8226620;28;20039;-78
2023/02/03 12:10:58;;;;;;;0.40;0.22;;;7.80;99.90;;;;;;8229715;28;20026;-78
2023/02/03 12:15:21;;;;;;;5.03;1.10;;;7.60;99.90;;;;;;8210943;28;20424;-78
2023/02/03 12:19:43;;;;;;;0.80;0.22;;;7.60;99.90;;;;;;8229185;28;20022;-77
2023/02/03 12:24:05;;;;;;;0.90;0.80;;;7.60;99.90;;;;;;8226326;28;20046;-79
2023/02/03 12:28:20;;;;;;;9.40;3.00;;;7.30;99.90;;;;;;8240357;28;20039;-78
2023/02/03 12:32:32;;;;;;;0.75;0.50;;;7.40;99.90;;;;;;8224766;28;20053;-78
2023/02/03 12:36:38;;;;;;;0.50;0.40;;;7.50;99.90;;;;;;8235815;28;20046;-77
2023/02/03 12:40:54;;;;;;;3.10;1.73;;;7.60;99.90;;;;;;8220717;28;20033;-78
2023/02/03 12:45:35;;;;;;;2.65;0.90;;;7.80;99.90;;;;;;8230154;28;20042;-78
2023/02/03 12:49:52;;;;;;;1.08;0.60;;;8.10;99.90;;;;;;8190988;28;20094;-77
2023/02/03 12:54:00;;;;;;;1.15;0.35;;;7.70;99.90;;;;;;8222571;28;20045;-79
2023/02/03 12:58:10;;;;;;;1.48;0.60;;;7.50;99.90;;;;;;8233232;28;20510;-79
2023/02/03 13:03:04;;;;;;;1.10;0.70;;;7.30;99.90;;;;;;8232525;28;20026;-79
2023/02/03 13:07:15;;;;;;;1.63;0.60;;;7.30;99.90;;;;;;8182648;28;20063;-78
2023/02/03 13:11:31;;;;;;;0.88;0.57;;;7.60;99.90;;;;;;8219875;28;20045;-78
2023/02/03 13:15:48;;;;;;;0.75;0.50;;;7.50;99.90;;;;;;8220692;28;20515;-78
2023/02/03 13:19:53;;;;;;;1.55;0.60;;;7.30;99.90;;;;;;8239206;28;20503;-79
2023/02/03 13:23:54;;;;;;;2.58;0.50;;;7.50;99.90;;;;;;8231195;28;20034;-79
2023/02/03 13:28:20;;;;;;;1.23;0.60;;;7.50;99.90;;;;;;8237423;28;20395;-79
2023/02/03 13:32:40;;;;;;;1.58;0.60;;;7.50;99.90;;;;;;8232290;28;20029;-79
2023/02/03 13:36:58;;;;;;;1.02;0.45;;;7.50;99.90;;;;;;8234798;28;20173;-78
2023/02/03 13:41:12;;;;;;;0.93;0.77;;;7.50;99.90;;;;;;8232122;28;20102;-79
2023/02/03 13:45:26;;;;;;;1.00;0.60;;;7.40;99.90;;;;;;8231210;28;20054;-78
2023/02/03 13:49:33;;;;;;;0.77;0.52;;;7.40;99.90;;;;;;8227706;28;20176;-78
2023/02/03 13:53:39;;;;;;;0.85;0.50;;;7.40;99.90;;;;;;8217633;28;20042;-78
2023/02/03 13:57:40;;;;;;;0.68;0.60;;;7.50;99.90;;;;;;8225416;28;20026;-79
2023/02/03 14:01:41;;;;;;;0.85;0.40;;;7.40;99.90;;;;;;8227916;28;20053;-79
2023/02/03 14:05:47;;;;;;;0.70;0.50;;;7.30;99.90;;;;;;8222271;28;20403;-78
2023/02/03 14:10:12;;;;;;;1.77;0.70;;;7.20;99.90;;;;;;8216242;28;20023;-78
2023/02/03 14:14:12;;;;;;;2.00;0.90;;;7.20;99.90;;;;;;8220544;28;20033;-79
2023/02/03 14:18:33;;;;;;;0.85;0.50;;;7.00;99.90;;;;;;8218977;28;20046;-78
2023/02/03 14:22:38;;;;;;;1.33;0.40;;;7.00;99.90;;;;;;8220556;28;20030;-78
2023/02/03 14:26:59;;;;;;;0.40;0.40;;;7.00;99.90;;;;;;8220454;28;20027;-78
2023/02/03 14:31:11;;;;;;;4.93;0.90;;;7.00;99.90;;;;;;8222447;28;20026;-78
2023/02/03 14:35:24;;;;;;;1.20;0.68;;;7.00;99.90;;;;;;8226091;28;20042;-78
2023/02/03 14:40:05;;;;;;;0.75;0.50;;;6.80;99.90;;;;;;8219209;28;20046;-78
2023/02/03 14:44:25;;;;;;;1.20;0.70;;;6.80;99.90;;;;;;8214758;28;20039;-78
2023/02/03 14:49:03;;;;;;;2.53;0.90;;;6.70;99.90;;;;;;8220905;28;20054;-78
2023/02/03 14:53:09;;;;;;;4.68;1.25;;;6.70;99.90;;;;;;8214617;28;20039;-77
2023/02/03 14:57:17;;;;;;;2.53;1.95;;;6.70;99.90;;;;;;8227080;28;20319;-77
2023/02/03 15:01:47;;;;;;;1.92;0.55;;;6.70;99.90;;;;;;8222762;28;20502;-78
2023/02/03 15:05:49;;;;;;;0.75;0.55;;;6.60;99.90;;;;;;8228239;28;20027;-78
2023/02/03 15:09:50;;;;;;;1.42;0.60;;;6.60;99.90;;;;;;8223369;28;20022;-78
2023/02/03 15:13:53;;;;;;;0.60;0.47;;;6.50;99.90;;;;;;8225101;28;20038;-79
2023/02/03 15:17:56;;;;;;;1.38;0.70;;;6.60;99.90;;;;;;8223919;28;20023;-79
2023/02/03 15:21:56;;;;;;;1.08;0.52;;;6.60;99.90;;;;;;8224079;28;20041;-78
2023/02/03 15:26:12;;;;;;;1.15;0.52;;;6.50;99.90;;;;;;8219030;28;20399;-78
2023/02/03 15:30:22;;;;;;;0.90;0.57;;;6.60;99.90;;;;;;8225970;28;20022;-79
2023/02/03 15:34:47;;;;;;;0.75;0.50;;;6.50;99.90;;;;;;8225555;28;20627;-78
2023/02/03 15:38:59;;;;;;;0.75;0.60;;;6.50;99.90;;;;;;8226627;28;20410;-79
2023/02/03 15:43:23;;;;;;;0.85;0.65;;;6.50;99.90;;;;;;8220670;28;20077;-77
2023/02/03 15:47:31;;;;;;;1.10;0.90;;;6.50;99.90;;;;;;8230213;28;20062;-77
2023/02/03 15:51:44;;;;;;;0.73;0.52;;;6.40;99.90;;;;;;8236036;28;20401;-78
2023/02/03 15:55:49;;;;;;;4.32;0.60;;;6.40;99.90;;;;;;8229589;28;20115;-78
2023/02/03 15:59:53;;;;;;;2.15;0.50;;;6.40;99.90;;;;;;8234847;28;20030;-79
2023/02/03 16:03:55;;;;;;;1.05;0.50;;;6.30;99.90;;;;;;8237654;28;20090;-78
2023/02/03 16:07:56;;;;;;;2.58;0.57;;;6.30;99.90;;;;;;8231501;28;20105;-77
2023/02/03 16:12:16;;;;;;;0.50;0.43;;;6.20;99.90;;;;;;8234520;28;20031;-78
2023/02/03 16:16:27;;;;;;;0.22;0.22;;;6.20;99.90;;;;;;8230290;28;20026;-78
2023/02/03 16:20:28;;;;;;;0.65;0.38;;;6.20;99.90;;;;;;8254525;23;20419;-79
2023/02/03 16:24:32;;;;;;;0.40;0.40;;;6.20;99.90;;;;;;8244446;28;20030;-83
2023/02/03 16:50:54;;;;;;;1.02;0.55;;;6.00;99.90;;;;;;8237117;28;20028;-80
2023/02/03 16:54:55;;;;;;;1.25;0.47;;;6.00;99.90;;;;;;8220774;28;20451;-80
2023/02/03 16:58:56;;;;;;;0.20;0.20;;;5.90;99.90;;;;;;8231801;28;20078;-80
2023/02/03 17:02:56;;;;;;;0.95;0.50;;;6.00;99.90;;;;;;8221379;28;20025;-79
2023/02/03 17:06:56;;;;;;;1.13;0.50;;;6.00;99.90;;;;;;8221024;28;20027;-80
2023/02/03 17:11:03;;;;;;;0.68;0.40;;;5.90;99.90;;;;;;8231584;28;20196;-79
2023/02/03 17:15:07;;;;;;;0.40;0.40;;;5.90;99.90;;;;;;8233619;28;20026;-79
2023/02/03 17:19:11;;;;;;;0.38;0.35;;;5.90;99.90;;;;;;8223824;28;20525;-80
2023/02/03 17:23:14;;;;;;;1.10;0.60;;;5.90;99.90;;;;;;8204513;28;20034;-79
2023/02/03 17:27:15;;;;;;;0.40;0.40;;;5.90;99.90;;;;;;8228783;28;20054;-79
2023/02/03 17:31:18;;;;;;;0.20;0.13;;;5.90;99.90;;;;;;8212500;28;20559;-80
2023/02/03 17:35:19;;;;;;;2.72;0.57;;;5.80;99.90;;;;;;8227979;28;21291;-79
2023/02/03 17:39:19;;;;;;;0.75;0.52;;;5.80;99.90;;;;;;8223525;28;20035;-80
2023/02/03 17:43:20;;;;;;;2.50;0.57;;;5.80;99.90;;;;;;8218255;28;20027;-80
2023/02/03 17:47:20;;;;;;;3.88;1.63;;;5.80;99.90;;;;;;8208646;28;20026;-80
2023/02/03 17:51:24;;;;;;;1.35;0.80;;;5.80;99.90;;;;;;8209409;28;20114;-79
2023/02/03 17:55:25;;;;;;;1.77;0.77;;;5.70;99.90;;;;;;8221942;28;20057;-80
2023/02/03 17:59:26;;;;;;;2.00;0.63;;;5.70;99.90;;;;;;8223209;28;20018;-80
2023/02/03 18:03:26;;;;;;;2.63;0.73;;;5.70;99.90;;;;;;8212605;28;20023;-80
2023/02/03 18:07:27;;;;;;;0.60;0.52;;;5.60;99.90;;;;;;8204537;28;20042;-79
2023/02/03 18:11:30;;;;;;;0.57;0.40;;;5.50;99.90;;;;;;8209501;28;20015;-78
2023/02/03 18:15:31;;;;;;;0.68;0.60;;;5.40;99.90;;;;;;8208617;28;20083;-78
2023/02/03 18:19:32;;;;;;;0.82;0.35;;;5.40;99.90;;;;;;8211389;28;20065;-79
2023/02/03 18:23:33;;;;;;;1.38;0.70;;;5.20;99.90;;;;;;8203557;28;20030;-78
2023/02/03 18:27:33;;;;;;;3.97;0.93;;;5.10;99.90;;;;;;8230236;28;20023;-78
2023/02/03 18:31:36;;;;;;;9.30;2.28;;;5.10;99.90;;;;;;8207191;28;20015;-79
2023/02/03 18:35:37;;;;;;;1.38;0.82;;;5.10;99.90;;;;;;8242957;28;20129;-78
2023/02/03 18:39:37;;;;;;;8.00;1.38;;;5.00;99.90;;;;;;8230287;28;20272;-78
2023/02/03 18:43:38;;;;;;;1.30;0.85;;;5.10;99.90;;;;;;8239669;28;20063;-78
2023/02/03 18:47:39;;;;;;;1.02;0.60;;;5.00;99.90;;;;;;8211282;28;20495;-79
2023/02/03 18:51:39;;;;;;;4.50;1.58;;;5.00;99.90;;;;;;8233521;28;20029;-77
2023/02/03 18:55:43;;;;;;;2.58;1.48;;;5.00;99.90;;;;;;8222949;28;20114;-78
2023/02/03 18:59:44;;;;;;;3.30;2.08;;;5.00;99.90;;;;;;8210864;28;20042;-79
2023/02/03 19:03:44;;;;;;;1.67;1.13;;;5.00;99.90;;;;;;8205987;28;20033;-78
2023/02/03 19:07:45;;;;;;;1.98;0.82;;;5.10;99.90;;;;;;8209414;28;20126;-79
2023/02/03 19:11:45;;;;;;;3.88;1.00;;;5.10;99.90;;;;;;8208810;28;20049;-78
2023/02/03 19:15:47;;;;;;;0.95;0.50;;;5.10;99.90;;;;;;8208591;28;20038;-78
2023/02/03 19:19:48;;;;;;;1.08;0.80;;;5.10;99.90;;;;;;8237152;28;20093;-77
2023/02/03 19:23:48;;;;;;;1.35;0.70;;;5.20;99.90;;;;;;8222522;28;20031;-79
2023/02/03 19:27:49;;;;;;;1.63;0.65;;;5.20;99.90;;;;;;8234058;28;20032;-78
2023/02/03 19:31:50;;;;;;;3.50;1.10;;;5.20;99.90;;;;;;8226860;28;20093;-78
2023/02/03 19:35:51;;;;;;;0.73;0.70;;;5.20;99.90;;;;;;8227047;28;20027;-77
2023/02/03 19:39:52;;;;;;;1.88;0.88;;;5.20;99.90;;;;;;8225309;28;20081;-77
2023/02/03 19:43:52;;;;;;;1.58;0.90;;;5.30;99.90;;;;;;8241859;28;20034;-78
2023/02/03 19:47:53;;;;;;;0.73;0.55;;;5.30;99.90;;;;;;8237820;28;20015;-78
2023/02/03 19:51:53;;;;;;;1.83;0.93;;;5.30;99.90;;;;;;8217280;28;20078;-79
2023/02/03 19:55:54;;;;;;;1.88;0.98;;;5.30;99.90;;;;;;8219218;28;20594;-78
2023/02/03 19:59:55;;;;;;;0.85;0.68;;;5.30;99.90;;;;;;8222782;28;20543;-78
2023/02/03 20:03:57;;;;;;;0.60;0.60;;;5.20;99.90;;;;;;8210197;28;20028;-77
2023/02/03 20:07:57;;;;;;;1.45;0.70;;;5.20;99.90;;;;;;8222500;28;20026;-78
2023/02/03 20:11:59;;;;;;;1.10;0.60;;;5.20;99.90;;;;;;8213946;28;20028;-79
2023/02/03 20:15:59;;;;;;;1.27;0.60;;;5.10;99.90;;;;;;8219235;28;20022;-77
2023/02/03 20:20:00;;;;;;;0.57;0.52;;;5.10;99.90;;;;;;8215961;28;20034;-77
2023/02/03 20:24:00;;;;;;;1.35;0.85;;;5.00;99.90;;;;;;8222112;28;20081;-78
2023/02/03 20:28:02;;;;;;;1.50;1.15;;;4.90;99.90;;;;;;8213703;28;20177;-78
2023/02/03 20:32:05;;;;;;;3.25;1.58;;;4.90;99.90;;;;;;8231231;28;20034;-79
2023/02/03 20:36:06;;;;;;;0.68;0.50;;;4.80;99.90;;;;;;8241778;28;20026;-78
2023/02/03 20:40:14;;;;;;;2.92;1.50;;;4.80;99.90;;;;;;8241012;28;20754;-78
2023/02/03 20:44:15;;;;;;;0.80;0.60;;;4.80;99.90;;;;;;8253374;28;20086;-77
2023/02/03 20:48:18;;;;;;;0.88;0.70;;;4.80;99.90;;;;;;8232162;28;20269;-77
2023/02/03 20:52:19;;;;;;;1.13;0.60;;;4.70;99.90;;;;;;8231508;28;20411;-78
2023/02/03 20:56:20;;;;;;;1.23;0.85;;;4.70;99.90;;;;;;8215017;28;20035;-78
2023/02/03 21:00:23;;;;;;;1.63;0.80;;;4.70;99.90;;;;;;8221805;28;20031;-78
2023/02/03 21:08:46;;;;;;;1.23;0.90;;;4.60;99.90;;;;;;8227282;28;20502;-78
2023/02/03 21:12:47;;;;;;;0.57;0.50;;;4.60;99.90;;;;;;8238991;28;20035;-77
2023/02/03 21:16:48;;;;;;;1.02;0.80;;;4.60;99.90;;;;;;8233954;28;20030;-78
2023/02/03 21:20:50;;;;;;;1.52;0.63;;;4.50;99.90;;;;;;8240867;28;20041;-77
2023/02/03 21:24:56;;;;;;;2.25;0.73;;;4.50;99.90;;;;;;8231541;28;20023;-78
2023/02/03 21:28:58;;;;;;;3.15;0.88;;;4.60;99.90;;;;;;8227099;28;20030;-77
2023/02/03 21:33:05;;;;;;;1.50;0.70;;;4.60;99.90;;;;;;8249078;28;20034;-79
2023/02/03 21:37:36;;;;;;;0.93;0.70;;;4.60;99.90;;;;;;8248901;28;20415;-79
2023/02/03 21:41:36;;;;;;;0.60;0.55;;;4.50;99.90;;;;;;8204287;28;20126;-79
2023/02/03 21:45:41;;;;;;;0.73;0.70;;;4.40;99.90;;;;;;8213016;28;20407;-78
2023/02/03 21:49:42;;;;;;;2.55;0.93;;;4.40;99.90;;;;;;8202606;28;20227;-78
2023/02/03 21:53:52;;;;;;;0.95;0.63;;;4.50;99.90;;;;;;8205388;28;20023;-79
2023/02/03 21:57:53;;;;;;;0.77;0.50;;;4.50;99.90;;;;;;8203393;28;20534;-79
2023/02/03 22:01:57;;;;;;;1.08;0.73;;;4.50;99.90;;;;;;8222886;28;20035;-79
2023/02/03 22:06:23;;;;;;;0.98;0.50;;;4.40;99.90;;;;;;8206150;28;20035;-79